Time;durP1;ratioP1;P1;durP2;ratioP2;P2;SDS_P1;SDS_P2;PMS_P1;PMS_P2;Temp;Humidity;BMP_temperature;BMP_pressure;BME280_temperature;BME280_humidity;BME280_pressure;Samples;Min_cycle;Max_cycle;Signal;HPM_P1;HPM_P2
2021/11/19 00:01:21;;;;;;;12.80;11.47;;;9.60;99.90;;;;;;5005040;28;20237;-73
2021/11/19 00:03:49;;;;;;;18.30;11.80;;;9.60;99.90;;;;;;5005432;28;20258;-73
2021/11/19 00:06:18;;;;;;;15.03;11.30;;;9.70;99.90;;;;;;5005357;28;20294;-73
2021/11/19 00:08:46;;;;;;;15.77;11.43;;;9.70;99.90;;;;;;5005533;28;20209;-73
2021/11/19 00:11:16;;;;;;;17.00;11.03;;;9.70;99.90;;;;;;5005434;28;20227;-73
2021/11/19 00:13:43;;;;;;;17.87;11.33;;;9.70;99.90;;;;;;5005562;28;20279;-73
2021/11/19 00:16:12;;;;;;;17.63;11.90;;;9.70;99.90;;;;;;5005210;28;20286;-73
2021/11/19 00:18:39;;;;;;;15.80;12.37;;;9.70;99.90;;;;;;5005140;28;20301;-73
2021/11/19 00:21:05;;;;;;;12.57;10.90;;;9.70;99.90;;;;;;5005314;28;20290;-73
2021/11/19 00:23:34;;;;;;;13.00;11.70;;;9.70;99.90;;;;;;5008308;28;20266;-73
2021/11/19 00:26:01;;;;;;;12.93;11.27;;;9.80;99.90;;;;;;5008773;28;20212;-73
2021/11/19 00:28:28;;;;;;;15.20;10.77;;;9.80;99.90;;;;;;5008790;28;20214;-73
2021/11/19 00:30:55;;;;;;;15.43;11.53;;;9.80;99.90;;;;;;5008301;28;20238;-73
2021/11/19 00:33:22;;;;;;;13.03;11.10;;;9.70;99.90;;;;;;5008293;28;20238;-76
2021/11/19 00:35:49;;;;;;;13.23;11.43;;;9.70;99.90;;;;;;5008825;28;20282;-77
2021/11/19 00:38:17;;;;;;;17.07;11.93;;;9.70;99.90;;;;;;5008734;28;20223;-76
2021/11/19 00:40:48;;;;;;;15.47;12.40;;;9.80;99.90;;;;;;5008560;28;20206;-76
2021/11/19 00:43:15;;;;;;;18.87;12.73;;;9.70;99.90;;;;;;5008646;28;20194;-77
2021/11/19 00:45:42;;;;;;;14.87;12.17;;;9.80;99.90;;;;;;5008473;28;20213;-76
2021/11/19 00:48:11;;;;;;;14.57;12.67;;;9.70;99.90;;;;;;5008266;28;20213;-75
2021/11/19 00:50:40;;;;;;;17.57;13.00;;;9.80;99.90;;;;;;5008140;28;20278;-75
2021/11/19 00:53:08;;;;;;;16.17;12.37;;;9.70;99.90;;;;;;5008257;28;20213;-75
2021/11/19 00:55:36;;;;;;;15.63;12.53;;;9.80;99.90;;;;;;5007741;28;20229;-75
2021/11/19 00:58:05;;;;;;;16.67;12.63;;;9.70;99.90;;;;;;5008208;28;20239;-75
2021/11/19 01:00:37;;;;;;;18.97;12.93;;;9.70;99.90;;;;;;5007638;28;20243;-75
2021/11/19 01:03:04;;;;;;;16.97;12.20;;;9.80;99.90;;;;;;5007368;28;20622;-75
2021/11/19 01:05:31;;;;;;;15.50;12.43;;;9.80;99.90;;;;;;5008046;28;20261;-74
2021/11/19 01:07:57;;;;;;;18.93;12.90;;;9.80;99.90;;;;;;5007943;28;20217;-75
2021/11/19 01:10:28;;;;;;;14.87;12.63;;;9.80;99.90;;;;;;5007858;28;20262;-77
2021/11/19 01:12:56;;;;;;;17.40;12.20;;;9.90;99.90;;;;;;5008131;28;20233;-77
2021/11/19 01:15:27;;;;;;;15.67;11.77;;;9.90;99.90;;;;;;5008072;28;20236;-77
2021/11/19 01:17:57;;;;;;;16.57;12.07;;;9.90;99.90;;;;;;5008247;28;20194;-74
2021/11/19 01:20:29;;;;;;;20.13;12.57;;;9.90;99.90;;;;;;5007825;28;20237;-74
2021/11/19 01:22:57;;;;;;;14.07;11.30;;;9.90;99.90;;;;;;5007678;28;20225;-74
2021/11/19 01:25:27;;;;;;;18.80;12.80;;;9.90;99.90;;;;;;5007795;28;20294;-74
2021/11/19 01:27:54;;;;;;;13.53;12.13;;;10.00;99.90;;;;;;5007545;28;20206;-74
2021/11/19 01:30:26;;;;;;;12.70;11.40;;;10.00;99.90;;;;;;5007509;28;20240;-74
2021/11/19 01:32:53;;;;;;;15.70;11.70;;;10.00;99.90;;;;;;5007146;28;20712;-74
2021/11/19 01:35:21;;;;;;;14.07;11.63;;;10.00;99.90;;;;;;5006534;28;20663;-74
2021/11/19 01:37:48;;;;;;;19.17;11.60;;;10.00;99.90;;;;;;5007521;28;20213;-74
2021/11/19 01:40:18;;;;;;;13.97;11.93;;;10.00;99.90;;;;;;5007475;28;20209;-74
2021/11/19 01:42:48;;;;;;;15.20;11.47;;;10.10;99.90;;;;;;5007559;28;20251;-74
2021/11/19 01:45:18;;;;;;;12.60;11.30;;;10.00;99.90;;;;;;5007389;28;20643;-75
2021/11/19 01:47:50;;;;;;;13.17;11.77;;;10.00;99.90;;;;;;5007235;28;20217;-74
2021/11/19 01:50:21;;;;;;;13.73;12.33;;;10.10;99.90;;;;;;5007343;28;20230;-74
2021/11/19 01:52:51;;;;;;;14.87;11.97;;;10.10;99.90;;;;;;5007445;28;20271;-74
2021/11/19 01:55:24;;;;;;;15.07;11.97;;;10.10;99.90;;;;;;5007342;28;20206;-74
2021/11/19 01:57:57;;;;;;;13.47;11.90;;;10.20;99.90;;;;;;5007239;28;20238;-74
2021/11/19 02:00:29;;;;;;;12.87;11.57;;;10.10;99.90;;;;;;5006881;28;20618;-74
2021/11/19 02:03:00;;;;;;;13.13;11.93;;;10.10;99.90;;;;;;5007047;28;20663;-74
2021/11/19 02:05:33;;;;;;;13.47;11.43;;;10.20;99.90;;;;;;5007432;28;20247;-74
2021/11/19 02:08:04;;;;;;;14.00;11.37;;;10.20;99.90;;;;;;5007127;28;20244;-74
2021/11/19 02:10:39;;;;;;;14.43;11.00;;;10.20;99.90;;;;;;5006971;28;20255;-74
2021/11/19 02:13:16;;;;;;;14.87;12.17;;;10.30;99.90;;;;;;5006587;28;20671;-74
2021/11/19 02:15:47;;;;;;;12.37;10.50;;;10.20;99.90;;;;;;5025132;28;20257;-74
2021/11/19 02:18:19;;;;;;;15.27;11.77;;;10.20;99.90;;;;;;5026602;28;20265;-74
2021/11/19 02:20:50;;;;;;;14.87;11.03;;;10.20;99.90;;;;;;5026721;28;20193;-73
2021/11/19 02:23:20;;;;;;;13.57;10.87;;;10.30;99.90;;;;;;5026703;28;20266;-73
2021/11/19 02:25:50;;;;;;;14.10;11.50;;;10.30;99.90;;;;;;5026391;28;20201;-73
2021/11/19 02:28:20;;;;;;;13.07;11.67;;;10.30;99.90;;;;;;5026275;28;20201;-73
2021/11/19 02:30:58;;;;;;;12.97;11.67;;;10.30;99.90;;;;;;5026423;28;20209;-72
2021/11/19 02:33:28;;;;;;;13.80;12.37;;;10.30;99.90;;;;;;5026045;28;20760;-73
2021/11/19 02:35:58;;;;;;;13.80;11.70;;;10.30;99.90;;;;;;5026433;28;20217;-75
2021/11/19 02:38:31;;;;;;;14.63;12.10;;;10.30;99.90;;;;;;5026849;28;20224;-75
2021/11/19 02:40:58;;;;;;;16.83;11.30;;;10.40;99.90;;;;;;5027303;28;20262;-75
2021/11/19 02:43:30;;;;;;;14.83;11.43;;;10.30;99.90;;;;;;5026700;28;20209;-76
2021/11/19 02:45:56;;;;;;;13.20;12.00;;;10.30;99.90;;;;;;5026080;28;20204;-76
2021/11/19 02:48:27;;;;;;;11.87;10.77;;;10.40;99.90;;;;;;5026222;28;20232;-76
2021/11/19 02:50:56;;;;;;;13.47;11.50;;;10.40;99.90;;;;;;5026803;28;20189;-74
2021/11/19 02:53:23;;;;;;;12.43;11.07;;;10.40;99.90;;;;;;5026301;28;20201;-74
2021/11/19 02:55:52;;;;;;;16.87;11.10;;;10.40;99.90;;;;;;5025916;28;20200;-74
2021/11/19 02:58:22;;;;;;;13.50;12.10;;;10.40;99.90;;;;;;5025981;28;20257;-74
2021/11/19 03:00:52;;;;;;;13.77;11.30;;;10.40;99.90;;;;;;5025371;28;20790;-74
2021/11/19 03:03:19;;;;;;;13.97;11.40;;;10.40;99.90;;;;;;5026083;28;20249;-73
2021/11/19 03:05:47;;;;;;;11.63;10.53;;;10.40;99.90;;;;;;5025917;28;20266;-73
2021/11/19 03:08:14;;;;;;;14.43;11.03;;;10.40;99.90;;;;;;5025758;28;20212;-74
2021/11/19 03:10:44;;;;;;;12.13;10.90;;;10.40;99.90;;;;;;5025854;28;20233;-74
2021/11/19 03:13:12;;;;;;;11.87;10.77;;;10.40;99.90;;;;;;5025939;28;20205;-78
2021/11/19 03:15:43;;;;;;;12.07;10.83;;;10.40;99.90;;;;;;5026452;28;20200;-77
2021/11/19 03:18:11;;;;;;;11.57;10.47;;;10.50;99.90;;;;;;5026156;28;20253;-77
2021/11/19 03:20:38;;;;;;;12.80;11.50;;;10.50;99.90;;;;;;5026256;28;20223;-76
2021/11/19 03:23:07;;;;;;;12.27;11.03;;;10.50;99.90;;;;;;5025955;28;20212;-75
2021/11/19 03:25:37;;;;;;;12.30;10.63;;;10.50;99.90;;;;;;5025822;28;20294;-75
2021/11/19 03:28:05;;;;;;;14.47;10.83;;;10.50;99.90;;;;;;5025291;28;20211;-75
2021/11/19 03:30:33;;;;;;;13.80;10.60;;;10.60;99.90;;;;;;5025763;28;20266;-75
2021/11/19 03:33:00;;;;;;;12.33;10.47;;;10.50;99.90;;;;;;5025152;28;20254;-75
2021/11/19 03:35:29;;;;;;;11.73;10.63;;;10.60;99.90;;;;;;5025414;28;20721;-75
2021/11/19 03:37:57;;;;;;;12.83;11.53;;;10.50;99.90;;;;;;5025190;28;20917;-75
2021/11/19 03:40:28;;;;;;;11.93;10.73;;;10.60;99.90;;;;;;5025530;28;20212;-75
2021/11/19 03:42:59;;;;;;;13.13;10.80;;;10.60;99.90;;;;;;5025712;28;20196;-75
2021/11/19 03:45:31;;;;;;;14.17;11.07;;;10.60;99.90;;;;;;5025406;28;20284;-75
2021/11/19 03:47:58;;;;;;;13.97;11.20;;;10.60;99.90;;;;;;5025136;28;20608;-75
2021/11/19 03:50:29;;;;;;;14.10;12.33;;;10.60;99.90;;;;;;5025238;28;20229;-75
2021/11/19 03:52:56;;;;;;;14.37;12.97;;;10.60;99.90;;;;;;5025150;28;20543;-73
2021/11/19 03:55:26;;;;;;;16.60;12.53;;;10.60;99.90;;;;;;5025318;28;20244;-74
2021/11/19 03:57:54;;;;;;;16.20;13.57;;;10.60;99.90;;;;;;5027210;28;20221;-75
2021/11/19 04:00:23;;;;;;;16.50;13.17;;;10.60;99.90;;;;;;5028895;28;20247;-77
2021/11/19 04:02:51;;;;;;;19.30;14.07;;;10.50;99.90;;;;;;5028456;28;20640;-74
2021/11/19 04:05:19;;;;;;;17.13;13.77;;;10.50;99.90;;;;;;5028689;28;20215;-74
2021/11/19 04:07:45;;;;;;;18.17;14.73;;;10.50;99.90;;;;;;5028799;28;20208;-75
2021/11/19 04:10:13;;;;;;;21.03;15.37;;;10.50;99.90;;;;;;5024424;28;20771;-74
2021/11/19 04:12:42;;;;;;;23.53;15.03;;;10.40;99.90;;;;;;5024889;28;20232;-75
2021/11/19 04:15:12;;;;;;;20.73;15.70;;;10.40;99.90;;;;;;5024568;28;20278;-75
2021/11/19 04:17:39;;;;;;;25.97;17.23;;;10.40;99.90;;;;;;5024728;28;20273;-75
2021/11/19 04:20:08;;;;;;;24.63;17.23;;;10.40;99.90;;;;;;5025109;28;20217;-76
2021/11/19 04:22:35;;;;;;;26.70;17.90;;;10.40;99.90;;;;;;5024788;28;20216;-76
2021/11/19 04:25:04;;;;;;;24.43;19.37;;;10.40;99.90;;;;;;5024871;28;20205;-76
2021/11/19 04:27:33;;;;;;;27.03;19.67;;;10.30;99.90;;;;;;5024770;28;20205;-75
2021/11/19 04:30:01;;;;;;;27.00;19.93;;;10.30;99.90;;;;;;5024653;28;20639;-75
2021/11/19 04:32:28;;;;;;;29.23;19.97;;;10.30;99.90;;;;;;5025194;28;20229;-76
2021/11/19 04:34:56;;;;;;;29.23;19.83;;;10.30;99.90;;;;;;5024287;28;20305;-75
2021/11/19 04:37:23;;;;;;;32.30;20.77;;;10.30;99.90;;;;;;5024984;28;20244;-76
2021/11/19 04:39:50;;;;;;;27.57;19.90;;;10.30;99.90;;;;;;5024721;28;20213;-76
2021/11/19 04:42:17;;;;;;;30.40;20.13;;;10.30;99.90;;;;;;5024888;28;20600;-75
2021/11/19 04:44:44;;;;;;;33.83;21.40;;;10.30;99.90;;;;;;5024283;28;20240;-73
2021/11/19 04:47:12;;;;;;;32.83;20.80;;;10.30;99.90;;;;;;5024098;28;20395;-73
2021/11/19 04:49:39;;;;;;;33.47;21.10;;;10.30;99.90;;;;;;5024018;28;20760;-73
2021/11/19 04:52:09;;;;;;;34.57;21.10;;;10.30;99.90;;;;;;5023649;28;20670;-73
2021/11/19 04:54:35;;;;;;;33.30;21.47;;;10.40;99.90;;;;;;5024214;28;20242;-74
2021/11/19 04:57:03;;;;;;;32.40;20.20;;;10.40;99.90;;;;;;5023737;28;20225;-73
2021/11/19 04:59:31;;;;;;;35.77;21.57;;;10.40;99.90;;;;;;5024283;28;20231;-73
2021/11/19 05:02:02;;;;;;;35.70;20.93;;;10.40;99.90;;;;;;5012997;28;20261;-73
2021/11/19 05:04:30;;;;;;;33.03;20.97;;;10.50;99.90;;;;;;5026896;28;20205;-74
2021/11/19 05:06:57;;;;;;;31.33;21.00;;;10.50;99.90;;;;;;5024305;28;20291;-73
2021/11/19 05:09:23;;;;;;;32.13;20.47;;;10.50;99.90;;;;;;5020823;28;20259;-73
2021/11/19 05:11:55;;;;;;;32.47;20.60;;;10.50;99.90;;;;;;5015679;28;20218;-73
2021/11/19 05:14:23;;;;;;;28.87;20.93;;;10.60;99.90;;;;;;5010273;28;20229;-74
2021/11/19 05:16:49;;;;;;;29.10;17.93;;;10.50;99.90;;;;;;5013944;28;20197;-73
2021/11/19 05:19:17;;;;;;;27.33;18.60;;;10.50;99.90;;;;;;5017283;28;20250;-74
2021/11/19 05:21:46;;;;;;;30.90;19.80;;;10.50;99.90;;;;;;5012790;28;20205;-74
2021/11/19 05:24:14;;;;;;;29.87;18.60;;;10.60;99.90;;;;;;5021903;28;20226;-74
2021/11/19 05:26:42;;;;;;;26.20;18.03;;;10.60;99.90;;;;;;5017682;28;20197;-74
2021/11/19 05:29:10;;;;;;;24.53;18.03;;;10.60;99.90;;;;;;5015105;28;20239;-74
2021/11/19 05:31:38;;;;;;;24.70;17.00;;;10.60;99.90;;;;;;5020502;28;20212;-74
2021/11/19 05:34:05;;;;;;;25.33;16.77;;;10.60;99.90;;;;;;5017803;28;20237;-74
2021/11/19 05:36:33;;;;;;;24.27;16.20;;;10.60;99.90;;;;;;5018072;28;20254;-73
2021/11/19 05:39:01;;;;;;;22.17;15.90;;;10.60;99.90;;;;;;5017442;28;20225;-74
2021/11/19 05:41:28;;;;;;;19.50;15.57;;;10.70;99.90;;;;;;5014659;28;20619;-74
2021/11/19 05:43:55;;;;;;;18.63;15.17;;;10.70;99.90;;;;;;5014358;28;20201;-74
2021/11/19 05:46:24;;;;;;;20.90;15.03;;;10.70;99.90;;;;;;5017357;28;20537;-74
2021/11/19 05:48:53;;;;;;;20.00;14.83;;;10.70;99.90;;;;;;5016138;28;20225;-74
2021/11/19 05:51:21;;;;;;;18.70;14.67;;;10.70;99.90;;;;;;5017268;28;20310;-74
2021/11/19 05:53:49;;;;;;;20.67;14.73;;;10.80;99.90;;;;;;5016690;28;20201;-74
2021/11/19 05:56:18;;;;;;;20.20;14.33;;;10.80;99.90;;;;;;5019679;28;20193;-75
2021/11/19 05:58:45;;;;;;;21.03;14.50;;;10.80;99.90;;;;;;5017275;28;20665;-74
2021/11/19 06:01:16;;;;;;;16.47;14.03;;;10.80;99.90;;;;;;5015442;28;20282;-75
2021/11/19 06:03:44;;;;;;;16.87;14.27;;;10.80;99.90;;;;;;5017959;28;20197;-74
2021/11/19 06:06:11;;;;;;;16.00;14.07;;;10.80;99.90;;;;;;5016122;28;20208;-75
2021/11/19 06:08:38;;;;;;;18.23;14.47;;;10.90;99.90;;;;;;5014190;28;20663;-73
2021/11/19 06:11:10;;;;;;;16.60;14.37;;;10.90;99.90;;;;;;5013649;28;20792;-74
2021/11/19 06:13:41;;;;;;;17.13;13.67;;;10.80;99.90;;;;;;5005619;28;20752;-74
2021/11/19 06:16:11;;;;;;;16.40;13.27;;;10.80;99.90;;;;;;5005597;28;20701;-74
2021/11/19 06:18:40;;;;;;;17.17;13.97;;;10.80;99.90;;;;;;5006008;28;20237;-74
2021/11/19 06:21:11;;;;;;;15.80;13.97;;;10.80;99.90;;;;;;5005259;28;20544;-75
2021/11/19 06:23:41;;;;;;;17.10;13.93;;;10.80;99.90;;;;;;5006172;28;20267;-74
2021/11/19 06:26:13;;;;;;;18.57;13.53;;;10.80;99.90;;;;;;5005954;28;21005;-74
2021/11/19 06:28:45;;;;;;;15.97;13.33;;;10.80;99.90;;;;;;5011195;28;20193;-75
2021/11/19 06:31:14;;;;;;;15.17;13.03;;;10.90;99.90;;;;;;5016230;28;20228;-75
2021/11/19 06:33:41;;;;;;;18.13;14.03;;;10.80;99.90;;;;;;5016413;28;20198;-74
2021/11/19 06:36:09;;;;;;;17.40;13.83;;;10.90;99.90;;;;;;5004820;28;20705;-74
2021/11/19 06:38:36;;;;;;;14.90;13.30;;;10.90;99.90;;;;;;5016136;28;20224;-74
2021/11/19 06:41:04;;;;;;;15.33;13.33;;;10.80;99.90;;;;;;5013785;28;20259;-75
2021/11/19 06:43:31;;;;;;;13.87;12.43;;;10.80;99.90;;;;;;5016717;28;20254;-75
2021/11/19 06:46:00;;;;;;;16.37;12.43;;;10.80;99.90;;;;;;5020430;27;20223;-74
2021/11/19 06:48:26;;;;;;;13.80;12.40;;;10.90;99.90;;;;;;5015841;28;20216;-74
2021/11/19 06:50:53;;;;;;;14.10;12.60;;;10.90;99.90;;;;;;5014777;28;20205;-75
2021/11/19 06:53:22;;;;;;;13.23;11.93;;;10.90;99.90;;;;;;5014285;28;20202;-75
2021/11/19 06:55:49;;;;;;;13.33;11.77;;;10.90;99.90;;;;;;5015667;28;20204;-74
2021/11/19 06:58:16;;;;;;;13.00;11.67;;;10.90;99.90;;;;;;5012947;28;20220;-74
2021/11/19 07:00:47;;;;;;;12.90;11.53;;;10.90;99.90;;;;;;5013053;28;20230;-74
2021/11/19 07:03:16;;;;;;;12.40;11.20;;;10.90;99.90;;;;;;5012421;28;20205;-74
2021/11/19 07:05:44;;;;;;;13.00;11.67;;;11.00;99.90;;;;;;5016214;28;20194;-74
2021/11/19 07:08:14;;;;;;;12.33;11.03;;;10.90;99.90;;;;;;5013845;28;20596;-74
2021/11/19 07:10:44;;;;;;;13.23;11.83;;;11.00;99.90;;;;;;5015701;28;20263;-74
2021/11/19 07:13:12;;;;;;;11.40;10.20;;;11.00;99.90;;;;;;5006860;28;20218;-75
2021/11/19 07:15:40;;;;;;;11.90;10.80;;;11.00;99.90;;;;;;5010344;28;20208;-74
2021/11/19 07:18:08;;;;;;;12.30;11.00;;;11.00;99.90;;;;;;5013060;28;20229;-74
2021/11/19 07:20:37;;;;;;;12.57;11.30;;;11.00;99.90;;;;;;5007305;28;20282;-73
2021/11/19 07:23:04;;;;;;;11.63;10.37;;;11.00;99.90;;;;;;5014002;28;20197;-73
2021/11/19 07:25:33;;;;;;;11.17;9.97;;;11.00;99.90;;;;;;5009862;28;20259;-73
2021/11/19 07:28:01;;;;;;;10.90;9.90;;;11.00;99.90;;;;;;5015202;28;20205;-73
2021/11/19 07:30:37;;;;;;;11.43;9.47;;;11.00;99.90;;;;;;5004084;28;20285;-73
2021/11/19 07:33:04;;;;;;;12.23;10.23;;;11.00;99.90;;;;;;5011463;28;20859;-71
2021/11/19 07:35:31;;;;;;;11.60;10.50;;;11.00;99.90;;;;;;5013390;28;20602;-71
2021/11/19 07:37:59;;;;;;;11.37;10.00;;;11.00;99.90;;;;;;5017533;28;20312;-71
2021/11/19 07:40:29;;;;;;;13.17;9.97;;;11.00;99.90;;;;;;5017134;28;20525;-71
2021/11/19 07:42:56;;;;;;;11.60;10.50;;;11.00;99.90;;;;;;5020907;28;20200;-71
2021/11/19 07:45:24;;;;;;;12.53;10.73;;;11.00;99.90;;;;;;5024630;28;20226;-71
2021/11/19 07:47:51;;;;;;;10.63;9.50;;;11.00;99.90;;;;;;5024322;28;20259;-71
2021/11/19 07:50:21;;;;;;;11.03;9.93;;;11.00;99.90;;;;;;5024472;28;20257;-71
2021/11/19 07:52:48;;;;;;;12.10;10.90;;;11.00;99.90;;;;;;5024419;28;20266;-71
2021/11/19 07:55:16;;;;;;;11.67;10.47;;;11.10;99.90;;;;;;5024416;28;20227;-71
2021/11/19 07:57:43;;;;;;;10.17;9.20;;;11.10;99.90;;;;;;5017024;28;20229;-71
2021/11/19 08:00:14;;;;;;;11.57;9.57;;;11.10;99.90;;;;;;5017235;28;20205;-71
2021/11/19 08:02:41;;;;;;;10.57;9.03;;;11.10;99.90;;;;;;5004280;28;20259;-71
2021/11/19 08:05:08;;;;;;;10.83;9.07;;;11.10;99.90;;;;;;5057452;28;20245;-71
2021/11/19 08:07:35;;;;;;;10.47;8.80;;;11.20;99.90;;;;;;5076535;27;21018;-71
2021/11/19 08:10:04;;;;;;;9.70;8.90;;;11.20;99.90;;;;;;5043977;27;20225;-71
2021/11/19 08:12:32;;;;;;;10.77;9.63;;;11.20;99.90;;;;;;5041608;28;20232;-71
2021/11/19 08:14:59;;;;;;;10.40;9.37;;;11.20;99.90;;;;;;5012504;28;20201;-71
2021/11/19 08:17:29;;;;;;;11.40;9.37;;;11.20;99.90;;;;;;5012420;28;20205;-71
2021/11/19 08:19:56;;;;;;;11.40;9.17;;;11.20;99.90;;;;;;5014295;28;20259;-71
2021/11/19 08:22:23;;;;;;;10.40;9.37;;;11.20;99.90;;;;;;5015279;28;20205;-72
2021/11/19 08:24:50;;;;;;;10.10;9.10;;;11.20;99.90;;;;;;5012209;28;20202;-71
2021/11/19 08:27:19;;;;;;;9.57;8.63;;;11.20;99.90;;;;;;5011716;28;20237;-71
2021/11/19 08:29:51;;;;;;;11.20;9.30;;;11.20;99.90;;;;;;5003978;28;20233;-71
2021/11/19 08:32:19;;;;;;;10.60;9.60;;;11.20;99.90;;;;;;5006735;28;20229;-71
2021/11/19 08:34:48;;;;;;;10.67;9.57;;;11.20;99.90;;;;;;5004201;28;20214;-71
2021/11/19 08:37:15;;;;;;;10.97;9.27;;;11.30;99.90;;;;;;5011578;28;20296;-71
2021/11/19 08:39:41;;;;;;;10.73;8.97;;;11.30;99.90;;;;;;5015454;28;20225;-72
2021/11/19 08:42:09;;;;;;;9.77;8.57;;;11.30;99.90;;;;;;5012984;28;20659;-72
2021/11/19 08:44:36;;;;;;;10.43;9.23;;;11.30;99.90;;;;;;5015713;28;20201;-71
2021/11/19 08:47:06;;;;;;;9.50;8.60;;;11.30;99.90;;;;;;5012167;28;20224;-71
2021/11/19 08:49:34;;;;;;;10.27;9.20;;;11.30;99.90;;;;;;5017102;28;20251;-71
2021/11/19 08:52:02;;;;;;;10.30;9.37;;;11.30;99.90;;;;;;5015481;28;20212;-71
2021/11/19 08:54:29;;;;;;;11.10;9.80;;;11.30;99.90;;;;;;5013763;28;20243;-71
2021/11/19 08:56:59;;;;;;;11.33;10.10;;;11.30;99.90;;;;;;5018597;28;20213;-71
2021/11/19 08:59:28;;;;;;;11.90;9.57;;;11.30;99.90;;;;;;5006747;28;20263;-71
2021/11/19 09:01:58;;;;;;;13.73;10.67;;;11.30;99.90;;;;;;5016481;28;20313;-71
2021/11/19 09:04:27;;;;;;;11.67;10.57;;;11.30;99.90;;;;;;5006805;28;20210;-71
2021/11/19 09:06:56;;;;;;;13.47;10.47;;;11.30;99.90;;;;;;5006877;28;20202;-71
2021/11/19 09:09:24;;;;;;;14.07;11.27;;;11.30;99.90;;;;;;5007202;28;20578;-72
2021/11/19 09:11:52;;;;;;;11.70;10.23;;;11.30;99.90;;;;;;5006812;28;20225;-71
2021/11/19 09:14:19;;;;;;;11.80;10.70;;;11.30;99.90;;;;;;5006759;28;20232;-71
2021/11/19 09:16:57;;;;;;;16.30;12.27;;;11.20;99.90;;;;;;5007066;28;20236;-71
2021/11/19 09:19:29;;;;;;;13.00;11.53;;;11.30;99.90;;;;;;5006633;28;20270;-71
2021/11/19 09:22:01;;;;;;;14.23;12.47;;;11.30;99.90;;;;;;5006487;28;20275;-71
2021/11/19 09:24:31;;;;;;;13.50;11.17;;;11.20;99.90;;;;;;5006739;28;20705;-71
2021/11/19 09:27:00;;;;;;;17.87;13.03;;;11.30;99.90;;;;;;5006781;28;20202;-75
2021/11/19 09:29:30;;;;;;;18.83;14.50;;;11.20;99.90;;;;;;5006985;28;20278;-74
2021/11/19 09:31:58;;;;;;;14.37;12.43;;;11.30;99.90;;;;;;5006248;28;20243;-72
2021/11/19 09:34:28;;;;;;;14.33;12.17;;;11.30;99.90;;;;;;5006333;28;20275;-72
2021/11/19 09:36:55;;;;;;;13.33;11.93;;;11.30;99.90;;;;;;5006546;28;20206;-71
2021/11/19 09:39:26;;;;;;;15.57;12.90;;;11.30;99.90;;;;;;5006336;28;20712;-71
2021/11/19 09:41:58;;;;;;;17.13;12.70;;;11.30;99.90;;;;;;5006186;28;20255;-71
2021/11/19 09:45:02;;;;;;;15.10;12.63;;;11.30;99.90;;;;;;5009605;28;20193;-71
2021/11/19 09:47:58;;;;;;;17.53;13.40;;;11.30;99.90;;;;;;5006054;28;20221;-72
2021/11/19 09:51:03;;;;;;;15.30;12.53;;;11.30;99.90;;;;;;5015603;28;20288;-71
2021/11/19 09:54:03;;;;;;;19.17;13.57;;;11.40;99.90;;;;;;5015774;28;20205;-71
2021/11/19 09:56:51;;;;;;;18.70;13.23;;;11.40;99.90;;;;;;5011198;27;20201;-71
2021/11/19 09:59:25;;;;;;;17.73;13.90;;;11.40;99.90;;;;;;5005770;28;20214;-71
2021/11/19 10:02:28;;;;;;;14.53;13.03;;;11.40;99.90;;;;;;5005369;28;20761;-71
2021/11/19 10:05:16;;;;;;;14.93;13.37;;;11.40;99.90;;;;;;5005694;28;20648;-72
2021/11/19 10:07:58;;;;;;;17.73;13.80;;;11.40;99.90;;;;;;5011682;28;20190;-71
2021/11/19 10:10:47;;;;;;;20.43;13.57;;;11.40;99.90;;;;;;5014946;28;20226;-71
2021/11/19 10:13:26;;;;;;;17.80;13.93;;;11.40;99.90;;;;;;5005991;28;20198;-71
2021/11/19 10:16:10;;;;;;;16.97;13.37;;;11.50;99.90;;;;;;5005707;28;20779;-71
2021/11/19 10:18:42;;;;;;;15.30;12.43;;;11.50;99.90;;;;;;5005502;28;20963;-72
2021/11/19 10:21:13;;;;;;;14.27;12.77;;;11.50;99.90;;;;;;5009384;28;20267;-71
2021/11/19 10:23:44;;;;;;;15.47;12.50;;;11.50;99.90;;;;;;5014219;28;20669;-71
2021/11/19 10:26:18;;;;;;;13.97;12.53;;;11.50;99.90;;;;;;5005840;28;20220;-72
2021/11/19 10:28:49;;;;;;;16.73;13.80;;;11.50;99.90;;;;;;5013091;28;20201;-72
2021/11/19 10:31:20;;;;;;;15.17;11.87;;;11.50;99.90;;;;;;5015334;28;20251;-71
2021/11/19 10:33:57;;;;;;;13.60;12.03;;;11.50;99.90;;;;;;5014513;28;20193;-71
2021/11/19 10:36:33;;;;;;;17.90;13.07;;;11.60;99.90;;;;;;5011763;28;20246;-71
2021/11/19 10:39:33;;;;;;;16.53;13.30;;;11.60;99.90;;;;;;5016576;28;20213;-71
2021/11/19 10:42:51;;;;;;;15.77;12.87;;;11.50;99.90;;;;;;5004850;28;20660;-72
2021/11/19 10:45:44;;;;;;;19.00;13.67;;;11.60;99.90;;;;;;5016278;28;20197;-71
2021/11/19 10:48:51;;;;;;;17.07;13.47;;;11.60;99.90;;;;;;5005177;28;20528;-71
2021/11/19 10:51:49;;;;;;;14.90;11.97;;;11.60;99.90;;;;;;5023016;28;20197;-72
2021/11/19 10:54:47;;;;;;;16.90;12.97;;;11.60;99.90;;;;;;5004875;28;20602;-72
2021/11/19 10:57:28;;;;;;;15.77;11.87;;;11.60;99.90;;;;;;5023517;28;20206;-72
2021/11/19 11:00:10;;;;;;;13.00;11.67;;;11.70;99.90;;;;;;5005191;28;20217;-70
2021/11/19 11:02:41;;;;;;;15.13;11.73;;;11.70;99.90;;;;;;5005125;28;20190;-71
2021/11/19 11:05:24;;;;;;;13.63;10.87;;;11.70;99.90;;;;;;5004881;28;20202;-71
2021/11/19 11:08:06;;;;;;;15.00;11.27;;;11.80;99.90;;;;;;5004554;28;20333;-72
2021/11/19 11:10:38;;;;;;;15.90;11.60;;;11.80;99.90;;;;;;5015991;28;20189;-71
2021/11/19 11:13:21;;;;;;;12.27;11.00;;;11.80;99.90;;;;;;5013429;28;20640;-72
2021/11/19 11:15:52;;;;;;;13.40;10.70;;;11.80;99.90;;;;;;5015177;28;20197;-71
2021/11/19 11:18:23;;;;;;;13.47;10.70;;;11.80;99.90;;;;;;5012893;28;20594;-71
2021/11/19 11:21:16;;;;;;;13.43;10.73;;;11.80;99.90;;;;;;5014193;28;20583;-71
2021/11/19 11:24:06;;;;;;;11.93;10.27;;;11.80;99.90;;;;;;5001698;28;20210;-72
2021/11/19 11:26:41;;;;;;;12.10;10.50;;;11.90;99.90;;;;;;5004829;28;20201;-71
2021/11/19 11:29:45;;;;;;;13.07;9.53;;;11.80;99.90;;;;;;5004374;28;20189;-72
2021/11/19 11:32:20;;;;;;;12.60;9.67;;;11.90;99.90;;;;;;5012390;28;20932;-72
2021/11/19 11:35:03;;;;;;;12.10;9.53;;;11.90;99.90;;;;;;5004765;28;20243;-72
2021/11/19 11:37:43;;;;;;;11.97;9.30;;;11.90;99.90;;;;;;5004722;28;20213;-72
2021/11/19 11:40:17;;;;;;;13.00;9.10;;;11.90;99.90;;;;;;5003899;28;20700;-72
2021/11/19 11:42:47;;;;;;;10.73;9.30;;;11.90;99.90;;;;;;5018932;28;20595;-72
2021/11/19 11:45:31;;;;;;;10.13;9.20;;;12.00;99.90;;;;;;5013585;28;20693;-76
2021/11/19 11:48:08;;;;;;;12.37;11.07;;;12.00;99.90;;;;;;5004373;28;20236;-76
2021/11/19 11:50:46;;;;;;;11.40;8.63;;;12.00;99.90;;;;;;5004801;28;20198;-76
2021/11/19 11:53:15;;;;;;;14.47;8.87;;;12.00;99.90;;;;;;5009232;28;20926;-72
2021/11/19 11:56:04;;;;;;;9.70;8.10;;;12.00;99.90;;;;;;5014918;28;20201;-72
2021/11/19 11:58:34;;;;;;;9.17;7.60;;;12.10;99.90;;;;;;5004727;28;20214;-72
2021/11/19 12:01:10;;;;;;;8.33;7.30;;;12.10;99.90;;;;;;5004915;28;20237;-72
2021/11/19 12:03:47;;;;;;;7.37;6.63;;;12.10;99.90;;;;;;5004605;28;20197;-72
2021/11/19 12:06:20;;;;;;;7.00;6.07;;;12.20;99.90;;;;;;5004507;28;20196;-72
2021/11/19 12:09:05;;;;;;;7.23;5.90;;;12.20;99.90;;;;;;5004347;28;20715;-72
2021/11/19 12:12:05;;;;;;;7.13;6.07;;;12.30;99.90;;;;;;5004387;28;20226;-72
2021/11/19 12:14:41;;;;;;;7.97;5.60;;;12.30;99.90;;;;;;5004752;28;20210;-72
2021/11/19 12:17:24;;;;;;;11.03;4.77;;;12.30;99.90;;;;;;5004451;28;20193;-72
2021/11/19 12:19:58;;;;;;;8.13;5.57;;;12.30;99.90;;;;;;5007156;28;20225;-73
2021/11/19 12:22:39;;;;;;;6.57;5.23;;;12.30;99.90;;;;;;5008041;28;20202;-73
2021/11/19 12:25:53;;;;;;;6.83;5.13;;;12.30;99.90;;;;;;5008226;28;20217;-73
2021/11/19 12:28:22;;;;;;;9.40;6.27;;;12.30;99.90;;;;;;5016992;28;20205;-73
2021/11/19 12:30:56;;;;;;;6.07;5.57;;;12.30;99.90;;;;;;5007950;28;20627;-73
2021/11/19 12:33:25;;;;;;;6.10;5.40;;;12.30;99.90;;;;;;5008610;28;20547;-73
2021/11/19 12:35:58;;;;;;;8.07;5.93;;;12.30;99.90;;;;;;5008233;28;20222;-73
2021/11/19 12:38:32;;;;;;;6.73;4.73;;;12.30;99.90;;;;;;5012914;28;20193;-73
2021/11/19 12:41:05;;;;;;;7.37;5.20;;;12.30;99.90;;;;;;5015398;28;20212;-73
2021/11/19 12:43:56;;;;;;;7.27;5.60;;;12.40;99.90;;;;;;5015365;28;20603;-73
2021/11/19 12:46:41;;;;;;;7.17;5.37;;;12.40;99.90;;;;;;5016435;28;20628;-73
2021/11/19 12:49:36;;;;;;;9.03;5.83;;;12.30;99.90;;;;;;5014555;28;20226;-73
2021/11/19 12:52:09;;;;;;;6.00;5.27;;;12.30;99.90;;;;;;4971242;28;20229;-73
2021/11/19 12:54:44;;;;;;;6.77;5.43;;;12.30;99.90;;;;;;5007371;28;20247;-73